createdAt,value
2019-04-14T00:02:16.374Z,84.06
2019-04-14T00:04:50.561Z,84.37
2019-04-14T00:07:23.068Z,84.43
2019-04-14T00:09:54.567Z,84.59
2019-04-14T00:12:25.926Z,84.51
2019-04-14T00:14:57.879Z,84.50
2019-04-14T00:17:29.169Z,84.90
2019-04-14T00:20:00.967Z,84.70
2019-04-14T00:22:33.639Z,84.75
2019-04-14T00:25:07.101Z,84.96
2019-04-14T00:27:38.868Z,85.20
2019-04-14T00:30:14.336Z,85.34
2019-04-14T00:32:48.694Z,85.34
2019-04-14T00:35:38.603Z,85.33
2019-04-14T00:38:15.193Z,85.39
2019-04-14T00:40:52.095Z,85.39
2019-04-14T00:43:25.135Z,85.24
2019-04-14T00:46:00.902Z,84.70
2019-04-14T00:48:32.044Z,84.55
2019-04-14T00:51:03.394Z,84.58
2019-04-14T00:53:35.930Z,84.35
2019-04-14T00:56:08.375Z,84.50
2019-04-14T00:58:39.729Z,84.27
2019-04-14T01:01:11.234Z,84.32
2019-04-14T01:03:43.568Z,84.52
2019-04-14T01:06:16.546Z,84.60
2019-04-14T01:08:48.890Z,84.85
2019-04-14T01:11:20.391Z,84.79
2019-04-14T01:13:52.887Z,84.98
2019-04-14T01:16:25.411Z,84.70
2019-04-14T01:18:58.078Z,84.69
2019-04-14T01:21:30.629Z,84.56
2019-04-14T01:24:03.106Z,84.76
2019-04-14T01:26:35.594Z,84.89
2019-04-14T01:29:08.014Z,85.15
2019-04-14T01:31:40.256Z,85.16
2019-04-14T01:34:12.908Z,84.81
2019-04-14T01:36:45.326Z,85.15
2019-04-14T01:39:17.638Z,85.12
2019-04-14T01:41:49.955Z,85.43
2019-04-14T01:44:22.120Z,85.46
2019-04-14T01:46:54.671Z,85.31
2019-04-14T01:49:26.878Z,85.76
2019-04-14T01:52:08.076Z,85.88
2019-04-14T01:54:45.324Z,85.90
2019-04-14T01:57:21.874Z,85.81
2019-04-14T01:59:54.647Z,85.54
2019-04-14T02:02:27.644Z,85.60
2019-04-14T02:04:59.636Z,85.13
2019-04-14T02:07:31.928Z,85.13
2019-04-14T02:10:03.979Z,85.45
2019-04-14T02:12:36.550Z,85.18
2019-04-14T02:15:09.332Z,85.32
2019-04-14T02:17:41.635Z,85.12
2019-04-14T02:20:14.230Z,85.34
2019-04-14T02:22:46.321Z,85.27
2019-04-14T02:25:18.760Z,85.18
2019-04-14T02:27:51.399Z,85.35
2019-04-14T02:30:30.757Z,85.60
2019-04-14T02:33:23.999Z,85.35
2019-04-14T02:36:05.740Z,85.14
2019-04-14T02:41:07.374Z,85.22
2019-04-14T02:43:37.692Z,85.38
2019-04-14T02:46:02.719Z,85.20
2019-04-14T02:51:25.670Z,85.21
2019-04-14T02:53:54.391Z,85.16
2019-04-14T02:56:25.197Z,85.22
2019-04-14T03:04:17.120Z,84.83
2019-04-14T03:09:13.871Z,84.54
2019-04-14T03:11:38.081Z,84.30
2019-04-14T03:17:07.649Z,84.59
2019-04-14T03:19:25.055Z,84.47
2019-04-14T03:22:26.805Z,84.12
2019-04-14T03:24:46.933Z,84.44
2019-04-14T03:30:54.635Z,84.88
2019-04-14T03:35:51.133Z,84.27
2019-04-14T03:38:10.326Z,84.40
2019-04-14T03:40:34.047Z,83.96
2019-04-14T03:50:48.430Z,84.49
2019-04-14T03:53:22.031Z,84.20
2019-04-14T03:55:58.847Z,84.36
2019-04-14T03:58:24.680Z,83.98
2019-04-14T04:00:55.998Z,84.36
2019-04-14T04:03:28.209Z,84.29
2019-04-14T04:06:00.675Z,84.44
2019-04-14T04:08:33.372Z,84.23
2019-04-14T04:11:06.103Z,84.40
2019-04-14T04:13:37.479Z,84.46
2019-04-14T04:16:16.160Z,84.27
2019-04-14T04:18:57.866Z,84.10
2019-04-14T04:21:29.129Z,84.40
2019-04-14T04:24:19.191Z,84.72
2019-04-14T04:26:52.202Z,84.82
2019-04-14T04:29:25.196Z,85.08
2019-04-14T04:32:01.409Z,84.96
2019-04-14T04:34:34.371Z,85.13
2019-04-14T04:37:23.514Z,84.70
2019-04-14T04:39:56.630Z,84.39
2019-04-14T04:42:28.671Z,84.15
2019-04-14T04:45:00.161Z,84.12
2019-04-14T04:47:31.648Z,83.82
2019-04-14T04:50:02.954Z,83.89
2019-04-14T04:52:34.810Z,84.19
2019-04-14T04:55:06.779Z,84.07
2019-04-14T04:57:39.467Z,84.22
2019-04-14T05:00:13.368Z,84.43
2019-04-14T05:02:45.846Z,84.34
2019-04-14T05:06:13.334Z,84.21
2019-04-14T05:08:46.359Z,84.30
2019-04-14T05:11:31.616Z,84.29
2019-04-14T05:14:04.689Z,84.22
2019-04-14T05:16:36.723Z,84.49
2019-04-14T05:19:17.199Z,84.62
2019-04-14T05:21:41.065Z,84.65
2019-04-14T05:24:13.536Z,84.82
2019-04-14T05:26:45.930Z,84.57
2019-04-14T05:29:17.364Z,84.37
2019-04-14T05:31:49.040Z,84.55
2019-04-14T05:34:21.364Z,84.68
2019-04-14T05:36:52.772Z,84.70
2019-04-14T05:39:24.337Z,84.67
2019-04-14T05:42:05.915Z,84.45
2019-04-14T05:44:29.691Z,84.55
2019-04-14T05:47:02.110Z,84.35
2019-04-14T05:49:39.078Z,84.56
2019-04-14T05:52:07.656Z,84.47
2019-04-14T05:54:40.330Z,84.43
2019-04-14T05:57:11.684Z,84.26
2019-04-14T05:59:44.072Z,84.31
2019-04-14T06:02:15.891Z,84.16
2019-04-14T06:04:48.275Z,84.21
2019-04-14T06:07:19.554Z,84.16
2019-04-14T06:09:50.920Z,84.30
2019-04-14T06:12:22.217Z,84.19
2019-04-14T06:14:55.075Z,84.18
2019-04-14T06:17:26.419Z,84.19
2019-04-14T06:19:57.826Z,83.72
2019-04-14T06:22:30.732Z,83.67
2019-04-14T06:25:02.282Z,83.54
2019-04-14T06:28:12.357Z,83.74
2019-04-14T06:31:14.752Z,83.48
2019-04-14T06:33:57.692Z,83.49
2019-04-14T06:36:42.613Z,83.48
2019-04-14T06:39:13.765Z,83.42
2019-04-14T06:41:45.148Z,83.31
2019-04-14T06:44:16.452Z,83.32
2019-04-14T06:46:47.898Z,83.19
2019-04-14T06:49:19.566Z,82.64
2019-04-14T06:51:50.885Z,82.79
2019-04-14T06:54:22.211Z,82.74
2019-04-14T06:56:55.063Z,82.82
2019-04-14T06:59:26.361Z,83.02
2019-04-14T07:01:59.254Z,83.01
2019-04-14T07:04:30.747Z,82.43
2019-04-14T07:07:02.398Z,81.97
2019-04-14T07:09:33.941Z,81.72
2019-04-14T07:12:11.155Z,82.18
2019-04-14T07:14:44.078Z,81.69
2019-04-14T07:17:18.174Z,81.47
2019-04-14T07:20:01.281Z,80.82
2019-04-14T07:22:22.424Z,81.03
2019-04-14T07:25:04.348Z,81.22
2019-04-14T07:27:35.690Z,80.74
2019-04-14T07:30:31.981Z,80.64
2019-04-14T07:33:05.105Z,80.65
2019-04-14T07:35:54.146Z,80.60
2019-04-14T07:38:41.995Z,79.73
2019-04-14T07:41:17.006Z,79.97
2019-04-14T07:43:51.280Z,80.29
2019-04-14T07:46:39.970Z,80.00
2019-04-14T07:49:24.901Z,79.92
2019-04-14T07:52:15.166Z,79.42
2019-04-14T07:54:53.152Z,79.45
2019-04-14T07:57:42.663Z,80.12
2019-04-14T08:00:26.597Z,80.06
2019-04-14T08:03:02.632Z,78.51
2019-04-14T08:05:35.863Z,77.88
2019-04-14T08:08:10.837Z,77.60
2019-04-14T08:10:42.238Z,76.70
2019-04-14T08:13:13.602Z,75.06
2019-04-14T08:15:44.921Z,73.04
2019-04-14T08:18:16.446Z,72.87
2019-04-14T08:20:47.750Z,72.45
2019-04-14T08:23:20.033Z,73.42
2019-04-14T08:25:51.857Z,73.91
2019-04-14T08:28:23.371Z,72.63
2019-04-14T08:30:54.615Z,72.48
2019-04-14T08:33:26.188Z,70.86
2019-04-14T08:35:57.613Z,71.13
2019-04-14T08:38:29.028Z,72.66
2019-04-14T08:41:00.413Z,70.31
2019-04-14T08:43:48.422Z,71.10
2019-04-14T08:46:25.064Z,68.53
2019-04-14T08:49:14.435Z,67.58
2019-04-14T08:51:54.689Z,67.61
2019-04-14T08:54:39.956Z,66.35
2019-04-14T08:57:30.943Z,65.72
2019-04-14T09:00:18.982Z,66.93
2019-04-14T09:02:51.980Z,65.59
2019-04-14T09:05:47.193Z,66.23
2019-04-14T09:08:32.202Z,65.83
2019-04-14T09:11:07.912Z,64.72
2019-04-14T09:13:39.207Z,65.05
2019-04-14T09:16:10.686Z,63.79
2019-04-14T09:18:42.165Z,61.71
2019-04-14T09:21:13.585Z,65.33
2019-04-14T09:23:47.857Z,64.77
2019-04-14T09:26:19.793Z,63.84
2019-04-14T09:28:51.289Z,63.70
2019-04-14T09:31:22.764Z,63.44
2019-04-14T09:33:56.749Z,63.13
2019-04-14T09:36:28.254Z,61.98
2019-04-14T09:38:59.526Z,62.80
2019-04-14T09:41:35.102Z,62.71
2019-04-14T09:44:06.478Z,62.64
2019-04-14T09:46:38.776Z,63.11
2019-04-14T09:49:10.243Z,60.35
2019-04-14T09:51:44.233Z,60.92
2019-04-14T09:54:18.457Z,56.86
2019-04-14T09:56:51.040Z,58.64
2019-04-14T09:59:22.623Z,58.58
2019-04-14T10:02:02.056Z,58.16
2019-04-14T10:04:48.816Z,58.00
2019-04-14T10:07:24.774Z,56.51
2019-04-14T10:09:57.698Z,54.46
2019-04-14T10:12:31.993Z,56.49
2019-04-14T10:15:05.245Z,58.47
2019-04-14T10:17:36.915Z,53.59
2019-04-14T10:20:08.461Z,55.75
2019-04-14T10:22:39.777Z,53.65
2019-04-14T10:25:13.267Z,55.70
2019-04-14T10:27:47.311Z,54.14
2019-04-14T10:30:24.088Z,52.43
2019-04-14T10:33:27.472Z,53.84
2019-04-14T10:40:12.671Z,52.64
2019-04-14T10:46:05.889Z,49.42
2019-04-14T10:49:25.531Z,49.29
2019-04-14T10:53:17.432Z,48.83
2019-04-14T10:55:17.025Z,49.02
2019-04-14T10:58:03.841Z,50.24
2019-04-14T11:07:04.924Z,47.47
2019-04-14T11:09:32.141Z,46.85
2019-04-14T11:12:18.653Z,45.76
2019-04-14T11:18:02.352Z,45.22
2019-04-14T11:20:33.827Z,45.05
2019-04-14T11:23:10.980Z,43.59
2019-04-14T11:25:45.708Z,46.37
2019-04-14T11:28:17.777Z,43.16
2019-04-14T11:30:51.354Z,41.83
2019-04-14T11:33:27.421Z,43.83
2019-04-14T11:36:13.212Z,42.30
2019-04-14T11:41:50.875Z,41.00
2019-04-14T11:44:28.596Z,40.09
2019-04-14T11:47:00.319Z,41.27
2019-04-14T11:49:37.759Z,39.70
2019-04-14T11:52:40.619Z,42.04
2019-04-14T11:55:13.272Z,44.50
2019-04-14T11:57:48.586Z,42.35
2019-04-14T12:00:38.352Z,42.34
2019-04-14T12:03:11.744Z,40.72
2019-04-14T12:06:04.005Z,41.88
2019-04-14T12:08:56.291Z,39.23
2019-04-14T12:11:41.190Z,39.59
2019-04-14T12:14:21.718Z,39.33
2019-04-14T12:16:55.750Z,40.69
2019-04-14T12:19:29.411Z,39.09
2019-04-14T12:22:08.443Z,38.52
2019-04-14T12:24:36.051Z,37.88
2019-04-14T12:27:09.208Z,37.77
2019-04-14T12:29:44.334Z,37.88
2019-04-14T12:32:24.118Z,37.52
2019-04-14T12:34:57.122Z,40.87
2019-04-14T12:37:28.924Z,36.56
2019-04-14T12:40:05.132Z,38.74
2019-04-14T12:42:50.499Z,37.72
2019-04-14T12:45:40.157Z,36.50
2019-04-14T12:48:16.346Z,36.28
2019-04-14T12:50:56.289Z,36.55
2019-04-14T12:53:32.199Z,37.25
2019-04-14T12:56:09.751Z,37.01
2019-04-14T12:58:46.047Z,37.71
2019-04-14T13:01:26.383Z,35.54
2019-04-14T13:03:57.920Z,35.46
2019-04-14T13:06:32.444Z,34.92
2019-04-14T13:09:04.753Z,37.09
2019-04-14T13:11:37.870Z,35.98
2019-04-14T13:14:10.960Z,33.35
2019-04-14T13:16:43.835Z,35.17
2019-04-14T13:19:15.411Z,32.68
2019-04-14T13:21:49.176Z,36.10
2019-04-14T13:24:20.523Z,35.51
2019-04-14T13:26:52.610Z,32.41
2019-04-14T13:29:24.032Z,33.64
2019-04-14T13:32:06.019Z,34.12
2019-04-14T13:34:40.506Z,33.65
2019-04-14T13:37:14.922Z,35.18
2019-04-14T13:39:46.580Z,34.39
2019-04-14T13:42:17.997Z,34.36
2019-04-14T13:44:49.527Z,35.94
2019-04-14T13:47:20.957Z,35.46
2019-04-14T13:49:52.390Z,34.51
2019-04-14T13:52:23.820Z,34.89
2019-04-14T13:54:58.314Z,35.38
2019-04-14T13:57:31.609Z,34.47
2019-04-14T14:00:06.928Z,32.64
2019-04-14T14:02:42.827Z,33.76
2019-04-14T14:05:25.719Z,33.50
2019-04-14T14:07:57.470Z,34.34
2019-04-14T14:10:35.932Z,32.78
2019-04-14T14:13:09.608Z,32.96
2019-04-14T14:15:45.105Z,33.88
2019-04-14T14:18:34.375Z,32.66
2019-04-14T14:21:11.492Z,33.05
2019-04-14T14:23:47.140Z,35.00
2019-04-14T14:26:29.007Z,35.12
2019-04-14T14:29:00.648Z,34.92
2019-04-14T14:31:32.154Z,36.95
2019-04-14T14:34:10.586Z,35.51
2019-04-14T14:36:42.876Z,33.18
2019-04-14T14:39:19.081Z,33.07
2019-04-14T14:41:50.626Z,33.03
2019-04-14T14:44:26.604Z,33.41
2019-04-14T14:46:57.790Z,33.16
2019-04-14T14:49:46.947Z,34.26
2019-04-14T14:52:22.922Z,33.89
2019-04-14T14:54:55.925Z,33.94
2019-04-14T14:57:27.523Z,33.52
2019-04-14T14:59:59.019Z,34.24
2019-04-14T15:02:43.798Z,35.02
2019-04-14T15:05:15.122Z,34.05
2019-04-14T15:07:48.043Z,35.07
2019-04-14T15:10:19.328Z,35.05
2019-04-14T15:12:50.959Z,33.26
2019-04-14T15:15:28.751Z,33.53
2019-04-14T15:18:03.846Z,34.59
2019-04-14T15:20:35.257Z,35.88
2019-04-14T15:23:09.927Z,35.45
2019-04-14T15:25:48.767Z,33.37
2019-04-14T15:28:20.435Z,33.30
2019-04-14T15:30:51.851Z,35.54
2019-04-14T15:33:24.547Z,34.54
2019-04-14T15:35:57.461Z,35.07
2019-04-14T15:38:29.081Z,34.36
2019-04-14T15:41:01.537Z,35.10
2019-04-14T15:43:33.260Z,34.18
2019-04-14T15:46:04.698Z,34.15
2019-04-14T15:48:38.023Z,34.93
2019-04-14T15:51:10.577Z,35.87
2019-04-14T15:53:50.393Z,34.14
2019-04-14T15:56:23.647Z,34.54
2019-04-14T15:58:58.597Z,35.10
2019-04-14T16:01:45.349Z,35.80
2019-04-14T16:04:25.262Z,35.48
2019-04-14T16:07:04.742Z,36.29
2019-04-14T16:09:57.656Z,35.50
2019-04-14T16:12:30.863Z,35.63
2019-04-14T16:15:15.704Z,36.47
2019-04-14T16:18:05.039Z,36.85
2019-04-14T16:20:38.186Z,37.65
2019-04-14T16:23:10.287Z,38.12
2019-04-14T16:25:46.517Z,39.10
2019-04-14T16:28:19.727Z,38.70
2019-04-14T16:30:58.803Z,38.59
2019-04-14T16:33:32.008Z,38.75
2019-04-14T16:36:05.479Z,38.89
2019-04-14T16:38:38.605Z,39.47
2019-04-14T16:41:12.164Z,38.50
2019-04-14T16:43:43.773Z,38.03
2019-04-14T16:46:16.948Z,38.25
2019-04-14T16:48:52.440Z,39.42
2019-04-14T16:51:28.618Z,39.62
2019-04-14T16:54:03.157Z,39.36
2019-04-14T16:56:34.912Z,40.89
2019-04-14T16:59:07.775Z,39.00
2019-04-14T17:01:43.164Z,38.93
2019-04-14T17:15:20.868Z,40.57
2019-04-14T17:21:19.155Z,41.79
2019-04-14T17:30:26.605Z,41.47
2019-04-14T17:54:42.800Z,46.35
2019-04-14T17:57:37.008Z,46.87
2019-04-14T18:00:26.407Z,47.86
2019-04-14T18:03:21.251Z,47.96
2019-04-14T18:05:58.883Z,49.22
2019-04-14T18:08:48.607Z,49.44
2019-04-14T18:11:27.413Z,49.85
2019-04-14T18:14:08.903Z,50.22
2019-04-14T18:16:51.794Z,50.36
2019-04-14T18:19:41.062Z,50.99
2019-04-14T18:22:13.114Z,51.83
2019-04-14T18:24:49.179Z,52.64
2019-04-14T18:27:22.688Z,52.12
2019-04-14T18:30:03.356Z,53.25
2019-04-14T18:35:44.769Z,54.02
2019-04-14T18:46:23.118Z,55.02
2019-04-14T18:48:57.191Z,55.39
2019-04-14T18:51:35.705Z,54.96
2019-04-14T18:54:08.763Z,55.44
2019-04-14T18:56:40.177Z,55.69
2019-04-14T18:59:13.203Z,55.41
2019-04-14T19:01:48.425Z,55.41
2019-04-14T19:04:20.794Z,55.59
2019-04-14T19:06:52.224Z,55.67
2019-04-14T19:09:23.585Z,56.35
2019-04-14T19:11:56.670Z,56.07
2019-04-14T19:14:29.891Z,56.14
2019-04-14T19:17:17.796Z,56.35
2019-04-14T19:20:00.842Z,57.01
2019-04-14T19:22:23.860Z,56.46
2019-04-14T19:25:07.487Z,57.06
2019-04-14T19:27:29.520Z,57.08
2019-04-14T19:30:00.859Z,57.71
2019-04-14T19:32:33.771Z,57.57
2019-04-14T19:35:07.206Z,57.89
2019-04-14T19:37:38.711Z,57.48
2019-04-14T19:40:10.415Z,57.94
2019-04-14T19:42:41.809Z,57.92
2019-04-14T19:45:13.388Z,57.75
2019-04-14T19:47:44.692Z,58.71
2019-04-14T19:50:16.075Z,58.14
2019-04-14T19:52:47.470Z,58.48
2019-04-14T19:55:20.585Z,58.50
2019-04-14T19:57:51.949Z,58.78
2019-04-14T20:00:23.422Z,58.92
2019-04-14T20:02:54.777Z,58.85
2019-04-14T20:05:26.166Z,59.37
2019-04-14T20:07:57.673Z,59.61
2019-04-14T20:10:30.199Z,60.14
2019-04-14T20:13:01.664Z,60.59
2019-04-14T20:15:38.098Z,59.91
2019-04-14T20:18:14.530Z,60.21
2019-04-14T20:21:04.796Z,60.75
2019-04-14T20:23:44.837Z,60.26
2019-04-14T20:26:23.327Z,60.60
2019-04-14T20:29:11.058Z,61.09
2019-04-14T20:31:44.002Z,60.96
2019-04-14T20:34:15.830Z,61.13
2019-04-14T20:36:47.272Z,61.33
2019-04-14T20:39:19.148Z,61.66
2019-04-14T20:41:50.590Z,61.55
2019-04-14T20:44:22.436Z,61.78
2019-04-14T20:46:54.858Z,61.70
2019-04-14T20:49:26.151Z,61.67
2019-04-14T20:51:57.620Z,61.69
2019-04-14T20:54:28.983Z,61.92
2019-04-14T20:57:00.393Z,62.00
2019-04-14T20:59:32.493Z,61.50
2019-04-14T21:02:05.653Z,61.36
2019-04-14T21:04:54.679Z,61.30
2019-04-14T21:07:39.777Z,61.19
2019-04-14T21:10:15.611Z,61.55
2019-04-14T21:12:48.554Z,61.39
2019-04-14T21:15:24.348Z,61.61
2019-04-14T21:18:03.159Z,61.63
2019-04-14T21:20:45.944Z,61.58
2019-04-14T21:23:18.929Z,61.31
2019-04-14T21:26:00.265Z,61.74
2019-04-14T21:28:27.318Z,61.56
2019-04-14T21:31:02.966Z,61.83
2019-04-14T21:33:54.887Z,61.58
2019-04-14T21:36:31.627Z,61.89
2019-04-14T21:39:21.052Z,61.85
2019-04-14T21:41:52.917Z,61.84
2019-04-14T21:44:24.210Z,62.20
2019-04-14T21:46:55.562Z,62.17
2019-04-14T21:49:27.054Z,62.51
2019-04-14T21:52:05.875Z,62.21
2019-04-14T21:54:37.227Z,62.47
2019-04-14T21:57:26.436Z,62.84
2019-04-14T22:00:16.621Z,63.03
2019-04-14T22:03:03.044Z,63.37
2019-04-14T22:05:50.050Z,63.50
2019-04-14T22:08:38.169Z,63.62
2019-04-14T22:11:23.066Z,63.67
2019-04-14T22:13:54.425Z,63.86
2019-04-14T22:16:27.095Z,64.58
2019-04-14T22:18:58.801Z,64.48
2019-04-14T22:21:30.143Z,64.59
2019-04-14T22:24:02.329Z,64.63
2019-04-14T22:26:33.740Z,64.79
2019-04-14T22:29:05.243Z,64.97
2019-04-14T22:31:36.738Z,65.13
2019-04-14T22:34:07.969Z,65.36
2019-04-14T22:36:39.281Z,65.25
2019-04-14T22:39:12.220Z,65.37
2019-04-14T22:41:43.645Z,65.54
2019-04-14T22:44:14.860Z,65.64
2019-04-14T22:46:46.176Z,65.88
2019-04-14T22:49:17.401Z,66.20
2019-04-14T22:51:48.807Z,66.18
2019-04-14T22:54:20.093Z,66.64
2019-04-14T22:56:51.646Z,66.48
2019-04-14T22:59:22.895Z,66.62
2019-04-14T23:01:59.730Z,66.76
2019-04-14T23:04:41.196Z,66.97
2019-04-14T23:07:18.035Z,67.24
2019-04-14T23:10:04.007Z,67.65
2019-04-14T23:12:39.968Z,67.92
2019-04-14T23:15:16.628Z,68.16
2019-04-14T23:18:01.933Z,68.99
2019-04-14T23:20:50.731Z,69.56
2019-04-14T23:23:32.800Z,70.36
2019-04-14T23:26:04.024Z,70.59
2019-04-14T23:28:35.329Z,70.47
2019-04-14T23:31:06.709Z,70.22
2019-04-14T23:33:38.160Z,70.07
2019-04-14T23:36:09.581Z,70.34
2019-04-14T23:38:40.965Z,70.86
2019-04-14T23:41:12.197Z,71.00
2019-04-14T23:43:43.627Z,71.20
2019-04-14T23:46:14.999Z,71.28
2019-04-14T23:48:46.544Z,71.17
2019-04-14T23:51:17.869Z,71.49
2019-04-14T23:53:49.155Z,71.53
2019-04-14T23:56:20.451Z,71.68
2019-04-14T23:58:51.870Z,71.99
